Time;durP1;ratioP1;P1;durP2;ratioP2;P2;SDS_P1;SDS_P2;PMS_P1;PMS_P2;Temp;Humidity;BMP_temperature;BMP_pressure;BME280_temperature;BME280_humidity;BME280_pressure;Samples;Min_cycle;Max_cycle;Signal;HPM_P1;HPM_P2
2022/07/08 00:02:02;;;;;;;4.23;1.40;;;14.80;99.90;;;;;;5121660;28;20205;-44
2022/07/08 00:04:28;;;;;;;9.00;1.77;;;14.80;99.90;;;;;;5122132;28;20223;-43
2022/07/08 00:06:54;;;;;;;4.67;2.00;;;14.80;99.90;;;;;;5121709;28;20637;-43
2022/07/08 00:09:20;;;;;;;7.33;1.53;;;14.80;99.90;;;;;;5121715;28;20228;-43
2022/07/08 00:11:46;;;;;;;5.50;1.80;;;14.80;99.90;;;;;;5120041;28;20220;-44
2022/07/08 00:14:12;;;;;;;7.93;1.67;;;14.80;99.90;;;;;;5117749;28;20174;-43
2022/07/08 00:16:43;;;;;;;8.57;1.90;;;14.80;99.90;;;;;;5118715;28;20347;-43
2022/07/08 00:19:14;;;;;;;4.30;1.50;;;14.80;99.90;;;;;;5117883;28;20198;-42
2022/07/08 00:21:40;;;;;;;4.87;1.47;;;14.80;99.90;;;;;;5117593;28;20589;-43
2022/07/08 00:24:06;;;;;;;6.10;1.43;;;14.70;99.90;;;;;;5117423;28;20202;-42
2022/07/08 00:26:32;;;;;;;7.27;1.77;;;14.80;99.90;;;;;;5116672;28;20182;-43
2022/07/08 00:28:57;;;;;;;8.20;1.73;;;14.80;99.90;;;;;;5115621;28;20210;-42
2022/07/08 00:34:45;;;;;;;9.00;1.70;;;14.80;99.90;;;;;;5114852;28;20189;-41
2022/07/08 00:37:11;;;;;;;8.93;1.80;;;14.70;99.90;;;;;;5113796;28;20181;-43
2022/07/08 00:39:37;;;;;;;4.73;1.73;;;14.70;99.90;;;;;;5113881;28;20202;-43
2022/07/08 00:42:03;;;;;;;7.20;1.60;;;14.70;99.90;;;;;;5114305;28;20174;-43
2022/07/08 00:44:29;;;;;;;8.97;1.80;;;14.70;99.90;;;;;;5113725;28;20275;-44
2022/07/08 00:46:55;;;;;;;7.90;1.83;;;14.70;99.90;;;;;;5113900;28;20183;-43
2022/07/08 00:49:21;;;;;;;8.23;2.20;;;14.70;99.90;;;;;;5095894;28;20724;-41
2022/07/08 00:51:48;;;;;;;6.33;1.50;;;14.70;99.90;;;;;;5113690;28;20292;-39
2022/07/08 00:54:20;;;;;;;6.50;1.80;;;14.70;99.90;;;;;;5113644;28;20538;-40
2022/07/08 00:56:46;;;;;;;3.93;1.30;;;14.60;99.90;;;;;;5095288;28;20618;-39
2022/07/08 00:59:12;;;;;;;5.47;1.43;;;14.60;99.90;;;;;;5113834;28;20198;-42
2022/07/08 01:01:38;;;;;;;5.93;1.70;;;14.60;99.90;;;;;;5116741;28;20669;-37
2022/07/08 01:04:04;;;;;;;6.57;2.03;;;14.60;99.90;;;;;;5118009;28;20223;-39
2022/07/08 01:06:31;;;;;;;9.83;1.90;;;14.60;99.90;;;;;;5099193;28;20174;-40
2022/07/08 01:08:57;;;;;;;5.03;1.63;;;14.60;99.90;;;;;;5117868;28;20218;-38
2022/07/08 01:11:23;;;;;;;7.60;1.87;;;14.50;99.90;;;;;;5117719;28;20225;-38
2022/07/08 01:13:49;;;;;;;6.07;1.63;;;14.50;99.90;;;;;;5099008;28;20170;-39
2022/07/08 01:16:14;;;;;;;5.30;1.37;;;14.60;99.90;;;;;;5117410;28;20189;-38
2022/07/08 01:18:41;;;;;;;5.03;1.27;;;14.60;99.90;;;;;;5117495;28;20192;-39
2022/07/08 01:21:07;;;;;;;6.27;1.80;;;14.50;99.90;;;;;;5117536;28;20208;-38
2022/07/08 01:23:33;;;;;;;7.27;1.60;;;14.50;99.90;;;;;;5117304;28;20178;-39
2022/07/08 01:26:00;;;;;;;5.83;1.60;;;14.50;99.90;;;;;;5117153;28;20189;-40
2022/07/08 01:28:26;;;;;;;4.00;1.30;;;14.50;99.90;;;;;;5099013;28;20680;-40
2022/07/08 01:30:52;;;;;;;7.10;1.77;;;14.40;99.90;;;;;;5116913;28;20193;-39
2022/07/08 01:33:18;;;;;;;9.77;1.90;;;14.40;99.90;;;;;;5117264;28;20180;-40
2022/07/08 01:35:44;;;;;;;8.00;1.60;;;14.50;99.90;;;;;;5117049;28;20186;-40
2022/07/08 01:38:10;;;;;;;10.13;1.90;;;14.50;99.90;;;;;;5117249;28;20167;-39
2022/07/08 01:40:35;;;;;;;3.97;2.07;;;14.50;99.90;;;;;;5098395;28;20270;-40
2022/07/08 01:43:02;;;;;;;14.77;2.17;;;14.50;99.90;;;;;;5117365;28;20254;-44
2022/07/08 01:45:27;;;;;;;5.10;1.33;;;14.50;99.90;;;;;;5119524;28;20194;-43
2022/07/08 01:47:53;;;;;;;3.90;1.57;;;14.50;99.90;;;;;;5119654;28;20205;-43
2022/07/08 01:50:18;;;;;;;5.07;1.60;;;14.50;99.90;;;;;;5120113;28;20198;-43
2022/07/08 01:52:44;;;;;;;5.97;1.77;;;14.40;99.90;;;;;;5119279;28;20239;-44
2022/07/08 01:55:10;;;;;;;5.33;1.60;;;14.40;99.90;;;;;;5119249;28;20193;-44
2022/07/08 01:57:35;;;;;;;3.80;1.50;;;14.40;99.90;;;;;;5101200;28;20652;-43
2022/07/08 02:00:01;;;;;;;6.40;1.60;;;14.40;99.90;;;;;;5119227;28;20687;-44
2022/07/08 02:02:27;;;;;;;3.73;1.60;;;14.40;99.90;;;;;;5119743;28;20291;-44
2022/07/08 02:04:53;;;;;;;9.43;1.80;;;14.40;99.90;;;;;;5119436;28;20634;-43
2022/07/08 02:07:18;;;;;;;5.73;1.43;;;14.30;99.90;;;;;;5119097;28;20178;-43
2022/07/08 02:09:44;;;;;;;4.23;1.30;;;14.40;99.90;;;;;;5118848;28;20271;-43
2022/07/08 02:12:19;;;;;;;6.70;1.83;;;14.30;99.90;;;;;;5118305;28;20569;-44
2022/07/08 02:14:46;;;;;;;4.17;1.50;;;14.30;99.90;;;;;;5119266;28;20150;-45
2022/07/08 02:17:12;;;;;;;6.33;1.70;;;14.30;99.90;;;;;;5119365;28;20591;-43
2022/07/08 02:19:38;;;;;;;4.30;1.53;;;14.30;99.90;;;;;;5118693;28;20340;-42
2022/07/08 02:22:04;;;;;;;5.13;1.57;;;14.30;99.90;;;;;;5119013;28;20259;-44
2022/07/08 02:24:30;;;;;;;4.97;1.30;;;14.20;99.90;;;;;;5118706;28;20254;-43
2022/07/08 02:26:55;;;;;;;7.37;2.13;;;14.20;99.90;;;;;;5118397;28;20210;-44
2022/07/08 02:29:21;;;;;;;5.93;1.40;;;14.20;99.90;;;;;;5117861;28;20206;-44
2022/07/08 02:31:47;;;;;;;5.93;1.67;;;14.20;99.90;;;;;;5118132;28;20174;-43
2022/07/08 02:34:12;;;;;;;7.60;1.70;;;14.20;99.90;;;;;;5117845;28;20179;-44
2022/07/08 02:36:38;;;;;;;4.37;1.73;;;14.20;99.90;;;;;;5117584;28;20201;-44
2022/07/08 02:39:04;;;;;;;6.33;1.80;;;14.20;99.90;;;;;;5117395;28;20194;-44
2022/07/08 02:41:30;;;;;;;7.87;1.50;;;14.20;99.90;;;;;;5118463;28;20200;-43
2022/07/08 02:43:56;;;;;;;5.50;1.40;;;14.20;99.90;;;;;;5118012;28;20170;-42
2022/07/08 02:46:22;;;;;;;9.63;1.80;;;14.20;99.90;;;;;;5117947;28;20179;-44
2022/07/08 02:48:48;;;;;;;8.20;2.03;;;14.20;99.90;;;;;;5117754;28;20210;-44
2022/07/08 02:51:13;;;;;;;7.40;1.80;;;14.10;99.90;;;;;;5118096;28;20167;-43
2022/07/08 02:53:39;;;;;;;9.40;1.53;;;14.10;99.90;;;;;;5117464;28;20170;-44
2022/07/08 02:56:05;;;;;;;2.97;1.47;;;14.10;99.90;;;;;;5117490;28;20171;-44
2022/07/08 02:58:30;;;;;;;8.23;1.90;;;14.10;99.90;;;;;;5117373;28;20638;-45
2022/07/08 03:00:56;;;;;;;6.33;1.87;;;14.10;99.90;;;;;;5117401;28;20220;-44
2022/07/08 03:03:22;;;;;;;3.87;1.60;;;14.10;99.90;;;;;;5117239;28;20200;-44
2022/07/08 03:05:47;;;;;;;4.70;1.47;;;14.10;99.90;;;;;;5117323;28;20189;-42
2022/07/08 03:08:13;;;;;;;4.37;1.90;;;14.00;99.90;;;;;;5117329;28;20213;-44
2022/07/08 03:10:38;;;;;;;5.47;1.63;;;14.00;99.90;;;;;;5117285;28;20198;-42
2022/07/08 03:13:04;;;;;;;5.47;1.77;;;14.00;99.90;;;;;;5117221;28;20220;-42
2022/07/08 03:15:29;;;;;;;6.93;1.70;;;14.00;99.90;;;;;;5116936;28;20650;-43
2022/07/08 03:17:55;;;;;;;4.57;1.97;;;14.00;99.90;;;;;;5116943;28;20641;-42
2022/07/08 03:20:20;;;;;;;6.93;1.70;;;14.00;99.90;;;;;;5117047;28;20659;-42
2022/07/08 03:22:46;;;;;;;6.53;1.73;;;13.90;99.90;;;;;;5117054;28;20260;-44
2022/07/08 03:25:12;;;;;;;4.97;1.83;;;13.90;99.90;;;;;;5115564;28;20533;-43
2022/07/08 03:27:38;;;;;;;8.50;1.77;;;13.90;99.90;;;;;;5116952;28;20260;-44
2022/07/08 03:30:05;;;;;;;10.30;2.17;;;13.90;99.90;;;;;;5116549;28;20310;-44
2022/07/08 03:32:30;;;;;;;5.07;1.67;;;13.80;99.90;;;;;;5116710;28;20634;-45
2022/07/08 03:34:56;;;;;;;5.43;1.80;;;13.80;99.90;;;;;;5116358;28;20177;-43
2022/07/08 03:37:22;;;;;;;6.70;1.97;;;13.70;99.90;;;;;;5116182;28;20190;-44
2022/07/08 03:39:50;;;;;;;9.07;2.07;;;13.70;99.90;;;;;;5116253;28;20212;-44
2022/07/08 03:42:16;;;;;;;4.97;1.80;;;13.60;99.90;;;;;;5116539;28;20191;-44
2022/07/08 03:44:41;;;;;;;9.10;1.90;;;13.60;99.90;;;;;;5116364;28;20182;-43
2022/07/08 03:47:08;;;;;;;8.47;2.03;;;13.50;99.90;;;;;;5116389;28;20186;-43
2022/07/08 03:49:33;;;;;;;5.17;1.77;;;13.50;99.90;;;;;;5115998;28;20229;-44
2022/07/08 03:51:59;;;;;;;6.70;1.90;;;13.50;99.90;;;;;;5116121;28;20257;-43
2022/07/08 03:54:25;;;;;;;7.67;1.77;;;13.50;99.90;;;;;;5115698;28;20207;-43
2022/07/08 03:56:51;;;;;;;7.13;2.00;;;13.50;99.90;;;;;;5115774;28;20169;-43
2022/07/08 03:59:18;;;;;;;6.20;2.17;;;13.50;99.90;;;;;;5115766;28;20194;-42
2022/07/08 04:01:43;;;;;;;5.83;1.70;;;13.50;99.90;;;;;;5115554;28;20193;-42
2022/07/08 04:04:09;;;;;;;6.93;1.90;;;13.50;99.90;;;;;;5115470;28;20311;-43
2022/07/08 04:06:34;;;;;;;11.37;1.77;;;13.40;99.90;;;;;;5115497;28;20255;-44
2022/07/08 04:09:01;;;;;;;6.40;1.70;;;13.40;99.90;;;;;;5115454;28;20217;-44
2022/07/08 04:11:26;;;;;;;8.23;1.93;;;13.30;99.90;;;;;;5115412;28;20228;-45
2022/07/08 04:13:52;;;;;;;9.30;2.10;;;13.30;99.90;;;;;;5115478;28;20699;-43
2022/07/08 04:16:17;;;;;;;6.43;1.67;;;13.20;99.90;;;;;;5115494;28;20204;-44
2022/07/08 04:18:43;;;;;;;4.70;1.80;;;13.20;99.90;;;;;;5115093;28;20174;-44
2022/07/08 04:21:09;;;;;;;4.13;1.63;;;13.20;99.90;;;;;;5115331;28;20178;-44
2022/07/08 04:23:35;;;;;;;6.40;2.03;;;13.20;99.90;;;;;;5115490;28;20287;-43
2022/07/08 04:26:00;;;;;;;7.30;1.50;;;13.20;99.90;;;;;;5115042;28;20173;-44
2022/07/08 04:28:26;;;;;;;7.13;1.97;;;13.30;99.90;;;;;;5115202;28;20270;-43
2022/07/08 04:30:52;;;;;;;6.50;1.70;;;13.20;99.90;;;;;;5115412;28;20247;-44
2022/07/08 04:33:18;;;;;;;5.30;1.90;;;13.20;99.90;;;;;;5117971;28;20221;-43
2022/07/08 04:35:44;;;;;;;6.10;1.50;;;13.20;99.90;;;;;;5117475;28;20192;-41
2022/07/08 04:38:09;;;;;;;8.23;2.33;;;13.20;99.90;;;;;;5119543;28;20194;-45
2022/07/08 04:40:35;;;;;;;4.93;1.50;;;13.30;99.90;;;;;;5119316;28;20194;-42
2022/07/08 04:43:01;;;;;;;5.53;1.50;;;13.30;99.90;;;;;;5119793;28;20256;-44
2022/07/08 04:45:26;;;;;;;3.57;1.60;;;13.30;99.90;;;;;;5120696;28;20235;-44
2022/07/08 04:47:52;;;;;;;6.40;1.90;;;13.40;99.90;;;;;;5120724;28;20171;-45
2022/07/08 04:50:18;;;;;;;7.63;2.10;;;13.40;99.90;;;;;;5119495;28;20213;-43
2022/07/08 04:52:44;;;;;;;5.90;1.27;;;13.30;99.90;;;;;;5119476;28;20170;-43
2022/07/08 04:55:27;;;;;;;6.53;1.70;;;13.40;99.90;;;;;;5119324;28;20202;-43
2022/07/08 04:57:54;;;;;;;6.83;1.80;;;13.30;99.90;;;;;;5119191;28;20641;-44
2022/07/08 05:00:20;;;;;;;4.53;1.97;;;13.30;99.90;;;;;;5120316;28;20201;-43
2022/07/08 05:02:46;;;;;;;7.43;2.00;;;13.30;99.90;;;;;;5119569;28;20170;-44
2022/07/08 05:05:11;;;;;;;5.43;1.60;;;13.30;99.90;;;;;;5119839;28;20630;-43
2022/07/08 05:07:37;;;;;;;7.13;1.57;;;13.40;99.90;;;;;;5120959;28;20175;-44
2022/07/08 05:10:03;;;;;;;4.27;1.70;;;13.40;99.90;;;;;;5120710;28;20190;-44
2022/07/08 05:12:28;;;;;;;5.23;2.30;;;13.50;99.90;;;;;;5119650;28;20624;-44
2022/07/08 05:14:54;;;;;;;5.53;2.03;;;13.50;99.90;;;;;;5122318;28;20174;-44
2022/07/08 05:17:19;;;;;;;7.93;1.97;;;13.50;99.90;;;;;;5099271;28;20231;-44
2022/07/08 05:19:45;;;;;;;8.67;2.47;;;13.60;99.90;;;;;;5117540;28;20307;-44
2022/07/08 05:22:10;;;;;;;7.90;2.33;;;13.70;99.90;;;;;;5122368;28;20228;-44
2022/07/08 05:24:36;;;;;;;11.63;2.47;;;13.70;99.90;;;;;;5117423;28;20204;-43
2022/07/08 05:27:02;;;;;;;5.87;1.87;;;13.80;99.90;;;;;;5118014;28;20189;-43
2022/07/08 05:29:27;;;;;;;7.23;2.17;;;13.90;99.90;;;;;;5117276;28;20212;-41
2022/07/08 05:31:54;;;;;;;7.43;2.70;;;13.90;99.90;;;;;;5120077;28;20174;-43
2022/07/08 05:34:21;;;;;;;6.77;2.50;;;13.90;99.90;;;;;;5118378;28;20196;-43
2022/07/08 05:36:47;;;;;;;13.80;2.93;;;14.00;99.90;;;;;;5117147;28;20565;-43
2022/07/08 05:39:12;;;;;;;8.07;2.30;;;14.10;99.90;;;;;;5117011;28;20232;-42
2022/07/08 05:41:38;;;;;;;7.63;1.93;;;14.20;99.90;;;;;;5117239;28;20190;-43
2022/07/08 05:44:04;;;;;;;6.57;2.07;;;14.10;99.90;;;;;;5117084;28;20177;-42
2022/07/08 05:46:30;;;;;;;6.80;2.07;;;14.30;99.90;;;;;;5116287;28;20176;-43
2022/07/08 05:48:55;;;;;;;9.00;1.67;;;14.40;99.90;;;;;;5116708;28;20212;-43
2022/07/08 05:51:21;;;;;;;8.20;2.00;;;14.40;99.90;;;;;;5116801;28;20208;-44
2022/07/08 05:53:46;;;;;;;8.80;1.73;;;14.50;99.90;;;;;;5116835;28;20549;-44
2022/07/08 05:56:12;;;;;;;7.57;1.80;;;14.60;99.90;;;;;;5116940;28;20268;-42
2022/07/08 05:58:37;;;;;;;5.20;1.50;;;14.60;99.90;;;;;;5098595;28;20233;-42
2022/07/08 06:01:03;;;;;;;3.23;1.43;;;14.70;99.90;;;;;;5116562;28;20513;-42
2022/07/08 06:03:29;;;;;;;7.17;1.80;;;14.70;99.90;;;;;;5116314;28;20237;-44
2022/07/08 06:05:54;;;;;;;3.00;1.20;;;14.70;99.90;;;;;;5117043;28;20178;-42
2022/07/08 06:08:20;;;;;;;6.33;1.37;;;14.90;99.90;;;;;;5116611;28;20658;-43
2022/07/08 06:10:45;;;;;;;4.90;1.30;;;15.00;99.90;;;;;;5116318;28;20192;-44
2022/07/08 06:13:11;;;;;;;6.97;1.50;;;15.10;99.90;;;;;;5116130;28;20171;-40
2022/07/08 06:15:37;;;;;;;6.57;2.03;;;15.20;99.90;;;;;;5116180;28;20264;-43
2022/07/08 06:18:02;;;;;;;6.87;1.63;;;15.30;99.90;;;;;;5116102;28;20202;-41
2022/07/08 06:20:28;;;;;;;5.10;1.40;;;15.40;99.90;;;;;;5116165;28;20206;-40
2022/07/08 06:22:53;;;;;;;4.57;1.37;;;15.50;99.90;;;;;;5116121;28;20178;-43
2022/07/08 06:25:19;;;;;;;5.70;1.50;;;15.60;99.90;;;;;;5116046;28;20680;-42
2022/07/08 06:27:45;;;;;;;10.97;1.90;;;15.60;99.90;;;;;;5118845;28;20223;-43
2022/07/08 06:30:11;;;;;;;5.50;1.70;;;15.90;99.90;;;;;;5116889;28;20198;-43
2022/07/08 06:32:36;;;;;;;8.20;1.33;;;15.90;99.90;;;;;;5116243;28;20179;-42
2022/07/08 06:35:02;;;;;;;9.47;1.87;;;16.10;99.90;;;;;;5116493;28;20186;-43
2022/07/08 06:37:28;;;;;;;2.63;1.10;;;16.20;99.90;;;;;;5115693;28;20192;-43
2022/07/08 06:39:54;;;;;;;5.30;1.03;;;16.30;99.90;;;;;;5115740;28;20251;-42
2022/07/08 06:42:20;;;;;;;4.37;1.07;;;16.40;99.90;;;;;;5116382;28;20539;-41
2022/07/08 06:44:46;;;;;;;4.17;1.50;;;16.40;99.90;;;;;;5115666;28;20283;-42
2022/07/08 06:47:11;;;;;;;3.37;1.50;;;16.40;99.90;;;;;;5097418;28;20200;-42
2022/07/08 06:49:37;;;;;;;6.60;1.47;;;16.50;99.90;;;;;;5115507;28;20213;-42
2022/07/08 06:52:04;;;;;;;5.00;1.43;;;16.60;99.90;;;;;;5115839;28;20231;-40
2022/07/08 06:54:35;;;;;;;6.30;1.27;;;16.70;99.90;;;;;;5115739;28;20178;-42
2022/07/08 06:57:02;;;;;;;4.73;1.03;;;16.80;99.90;;;;;;5116000;28;20579;-42
2022/07/08 06:59:28;;;;;;;4.00;0.90;;;17.00;99.90;;;;;;5115079;28;20198;-44
2022/07/08 07:01:54;;;;;;;3.17;1.23;;;17.00;99.90;;;;;;5115496;28;20194;-42
2022/07/08 07:04:20;;;;;;;5.83;1.60;;;16.90;99.90;;;;;;5115570;28;20181;-44
2022/07/08 07:06:46;;;;;;;3.47;1.10;;;16.80;99.90;;;;;;5101551;28;20174;-43
2022/07/08 07:09:12;;;;;;;3.03;1.03;;;16.90;99.90;;;;;;5115659;28;20217;-43
2022/07/08 07:11:39;;;;;;;4.37;1.10;;;17.10;99.90;;;;;;5115175;28;20178;-42
2022/07/08 07:14:06;;;;;;;6.67;1.10;;;17.40;99.90;;;;;;5115482;28;20610;-42
2022/07/08 07:16:32;;;;;;;2.10;0.70;;;17.60;99.90;;;;;;5115036;28;20162;-43
2022/07/08 07:18:58;;;;;;;5.50;1.13;;;17.80;99.90;;;;;;5115278;28;20320;-42
2022/07/08 07:21:23;;;;;;;6.90;1.50;;;17.90;99.90;;;;;;5114991;28;20261;-43
2022/07/08 07:23:49;;;;;;;3.60;1.10;;;18.10;99.90;;;;;;5114932;28;20174;-43
2022/07/08 07:26:15;;;;;;;4.07;1.30;;;18.00;99.90;;;;;;5115372;28;20227;-43
2022/07/08 07:28:40;;;;;;;6.83;1.07;;;18.20;99.90;;;;;;5114884;28;20787;-43
2022/07/08 07:31:06;;;;;;;3.43;1.00;;;18.40;99.90;;;;;;5114709;28;20571;-44
2022/07/08 07:33:32;;;;;;;4.20;1.40;;;18.70;99.90;;;;;;5114658;28;20182;-44
2022/07/08 07:35:58;;;;;;;4.90;1.37;;;18.90;99.90;;;;;;5114966;28;20198;-44
2022/07/08 07:38:23;;;;;;;2.47;0.90;;;19.00;99.90;;;;;;5115025;28;20216;-44
2022/07/08 07:40:49;;;;;;;3.53;1.33;;;19.10;99.90;;;;;;5114534;28;20194;-43
2022/07/08 07:43:14;;;;;;;8.70;1.43;;;19.20;99.90;;;;;;5117170;28;20174;-44
2022/07/08 07:45:40;;;;;;;4.20;1.00;;;19.20;99.90;;;;;;5116627;28;20182;-44
2022/07/08 07:48:06;;;;;;;6.00;1.27;;;19.20;99.90;;;;;;5114406;28;20233;-43
2022/07/08 07:50:31;;;;;;;6.17;1.63;;;19.20;99.90;;;;;;5114460;28;20194;-43
2022/07/08 07:52:57;;;;;;;3.60;1.10;;;19.10;99.90;;;;;;5114466;28;20175;-43
2022/07/08 07:55:23;;;;;;;3.13;1.30;;;18.80;99.90;;;;;;5114628;28;20170;-44
2022/07/08 07:57:49;;;;;;;4.97;1.37;;;18.50;99.90;;;;;;5114660;28;20664;-44
2022/07/08 08:00:16;;;;;;;4.73;1.30;;;18.30;99.90;;;;;;5114286;28;20201;-43
2022/07/08 08:02:42;;;;;;;3.10;1.03;;;18.20;99.90;;;;;;5114520;28;20634;-44
2022/07/08 08:05:09;;;;;;;2.70;0.90;;;18.30;99.90;;;;;;5117196;28;20170;-45
2022/07/08 08:07:37;;;;;;;4.20;1.00;;;18.30;99.90;;;;;;5114997;28;20526;-43
2022/07/08 08:10:04;;;;;;;5.57;1.43;;;18.40;99.90;;;;;;5117995;28;20210;-44
2022/07/08 08:12:29;;;;;;;2.70;1.17;;;18.50;99.90;;;;;;5115018;28;20650;-45
2022/07/08 08:14:55;;;;;;;7.20;1.27;;;18.70;99.90;;;;;;5114870;28;20181;-44
2022/07/08 08:17:21;;;;;;;3.73;1.20;;;19.00;99.90;;;;;;5115093;28;20574;-43
2022/07/08 08:19:46;;;;;;;4.20;0.90;;;19.00;99.90;;;;;;5114361;28;20202;-44
2022/07/08 08:22:12;;;;;;;2.40;1.10;;;19.10;99.90;;;;;;5118094;28;20546;-43
2022/07/08 08:24:38;;;;;;;3.80;1.10;;;19.20;99.90;;;;;;5115448;28;20545;-42
2022/07/08 08:27:03;;;;;;;2.93;1.10;;;19.30;99.90;;;;;;5096253;28;20263;-43
2022/07/08 08:29:29;;;;;;;6.77;1.47;;;19.20;99.90;;;;;;5114377;28;20354;-42
2022/07/08 08:31:55;;;;;;;3.90;1.40;;;19.20;99.90;;;;;;5114569;28;20642;-43
2022/07/08 08:34:20;;;;;;;4.97;1.30;;;19.30;99.90;;;;;;5115051;28;20170;-44
2022/07/08 08:36:46;;;;;;;3.47;1.33;;;19.40;99.90;;;;;;5115179;28;20190;-45
2022/07/08 08:39:11;;;;;;;4.13;1.40;;;19.70;99.90;;;;;;5113995;28;20681;-43
2022/07/08 08:41:39;;;;;;;3.63;1.37;;;19.80;99.90;;;;;;5114295;28;20231;-44
2022/07/08 08:44:05;;;;;;;3.80;1.43;;;19.80;99.90;;;;;;5114097;28;20193;-43
2022/07/08 08:46:32;;;;;;;4.80;1.30;;;19.90;99.90;;;;;;5114614;28;20177;-42
2022/07/08 08:48:58;;;;;;;4.60;1.37;;;19.90;99.90;;;;;;5115937;28;20218;-44
2022/07/08 08:51:24;;;;;;;4.57;1.27;;;19.90;99.90;;;;;;5115011;28;20516;-43
2022/07/08 08:53:53;;;;;;;4.87;1.57;;;19.90;99.90;;;;;;5114642;28;20231;-44
2022/07/08 08:56:19;;;;;;;7.50;1.50;;;20.30;99.90;;;;;;5115340;28;20583;-45
2022/07/08 08:58:46;;;;;;;3.77;1.70;;;20.60;99.90;;;;;;5115645;28;20170;-44
2022/07/08 09:01:13;;;;;;;5.23;1.33;;;20.80;99.90;;;;;;5117419;28;20218;-44
2022/07/08 09:03:39;;;;;;;5.13;1.43;;;21.00;99.90;;;;;;5117460;28;20170;-43
2022/07/08 09:06:06;;;;;;;7.30;1.20;;;21.20;99.90;;;;;;5118229;28;20185;-43
2022/07/08 09:08:32;;;;;;;3.97;1.30;;;21.40;99.90;;;;;;5117068;28;20205;-44
2022/07/08 09:10:58;;;;;;;5.77;1.30;;;21.50;99.90;;;;;;5116993;28;20198;-44
2022/07/08 09:13:25;;;;;;;4.43;1.33;;;21.60;99.90;;;;;;5116704;28;20167;-43
2022/07/08 09:15:54;;;;;;;7.23;1.63;;;21.80;99.90;;;;;;5116160;28;20641;-44
2022/07/08 09:18:22;;;;;;;5.77;1.30;;;21.90;99.90;;;;;;5114948;28;20189;-44
2022/07/08 09:20:52;;;;;;;8.13;1.57;;;22.10;99.90;;;;;;5114063;28;20244;-43
2022/07/08 09:23:23;;;;;;;3.33;1.17;;;22.20;99.90;;;;;;5117546;28;20178;-42
2022/07/08 09:25:52;;;;;;;5.33;1.30;;;22.30;99.90;;;;;;5121227;28;20649;-44
2022/07/08 09:28:37;;;;;;;3.93;1.23;;;22.30;99.90;;;;;;5117340;28;20237;-43
2022/07/08 09:31:05;;;;;;;3.40;1.20;;;21.70;99.90;;;;;;5117126;28;20666;-43
2022/07/08 09:33:31;;;;;;;2.90;1.17;;;21.50;99.90;;;;;;5117356;28;20173;-43
2022/07/08 09:36:00;;;;;;;5.33;1.50;;;21.70;99.90;;;;;;5117251;28;20182;-43
2022/07/08 09:38:27;;;;;;;3.57;1.20;;;21.70;99.90;;;;;;5117205;28;20174;-41
2022/07/08 09:41:12;;;;;;;3.40;1.40;;;21.70;99.90;;;;;;5117354;28;20201;-44
2022/07/08 09:43:46;;;;;;;3.60;1.40;;;21.80;99.90;;;;;;5117253;28;20166;-43
2022/07/08 09:46:12;;;;;;;5.70;1.40;;;21.90;99.90;;;;;;5117275;28;20178;-42
2022/07/08 09:48:37;;;;;;;5.07;1.10;;;22.10;99.90;;;;;;5098357;28;20582;-43
2022/07/08 09:51:08;;;;;;;5.40;1.37;;;22.30;99.90;;;;;;5116773;28;20642;-42
2022/07/08 09:53:35;;;;;;;6.43;1.87;;;22.50;99.90;;;;;;5117009;28;20155;-43
2022/07/08 09:56:02;;;;;;;9.37;2.20;;;22.60;99.90;;;;;;5116586;28;20174;-43
2022/07/08 09:58:32;;;;;;;5.90;1.47;;;22.80;99.90;;;;;;5116502;28;20763;-44
2022/07/08 10:01:00;;;;;;;4.33;1.50;;;22.90;99.90;;;;;;5116761;28;20202;-42
2022/07/08 10:03:27;;;;;;;4.87;1.37;;;22.80;99.90;;;;;;5116858;28;20181;-42
2022/07/08 10:05:54;;;;;;;5.73;1.67;;;22.90;99.90;;;;;;5116573;28;20192;-43
2022/07/08 10:08:20;;;;;;;4.50;1.37;;;23.20;99.90;;;;;;5116591;28;20611;-42
2022/07/08 10:10:48;;;;;;;3.90;1.23;;;23.30;99.90;;;;;;5116357;28;20187;-42
2022/07/08 10:13:15;;;;;;;5.93;1.53;;;23.20;99.90;;;;;;5098212;28;20268;-43
2022/07/08 10:15:43;;;;;;;5.97;1.40;;;23.30;99.90;;;;;;5116539;28;20522;-44
2022/07/08 10:18:22;;;;;;;5.80;1.53;;;23.00;99.90;;;;;;5116345;28;20181;-44
2022/07/08 10:20:52;;;;;;;4.07;1.47;;;22.60;99.90;;;;;;5116263;28;20205;-42
2022/07/08 10:23:49;;;;;;;8.23;1.47;;;22.40;99.90;;;;;;5116184;28;20170;-45
2022/07/08 10:26:30;;;;;;;3.70;1.40;;;22.30;99.90;;;;;;5099873;28;20190;-45
2022/07/08 10:29:05;;;;;;;3.63;1.53;;;22.30;99.90;;;;;;5115871;28;20201;-43
2022/07/08 10:31:44;;;;;;;4.13;1.20;;;22.50;99.90;;;;;;5097903;28;20587;-44
2022/07/08 10:34:17;;;;;;;5.50;1.57;;;22.60;99.90;;;;;;5100543;28;20253;-43
2022/07/08 10:36:50;;;;;;;4.73;1.50;;;22.70;99.90;;;;;;5115869;28;20216;-42
2022/07/08 10:39:30;;;;;;;4.63;1.60;;;22.60;99.90;;;;;;5116485;28;20206;-45
2022/07/08 10:41:57;;;;;;;4.63;2.03;;;22.60;99.90;;;;;;5097791;28;20603;-42
2022/07/08 10:44:58;;;;;;;3.90;1.60;;;22.70;99.90;;;;;;5115841;28;20200;-43
2022/07/08 10:47:29;;;;;;;4.83;1.47;;;22.90;99.90;;;;;;5034337;28;20250;-43
2022/07/08 10:50:08;;;;;;;5.43;1.40;;;23.10;99.90;;;;;;5102490;28;20312;-44
2022/07/08 10:52:41;;;;;;;6.37;1.80;;;22.80;99.90;;;;;;5097821;28;20668;-44
2022/07/08 10:55:08;;;;;;;6.47;1.80;;;22.40;99.90;;;;;;5116136;28;20634;-44
2022/07/08 10:57:35;;;;;;;5.22;1.52;;;22.40;99.90;;;;;;5115980;28;20170;-44
2022/07/08 11:00:13;;;;;;;4.80;1.27;;;22.60;99.90;;;;;;5115875;28;20284;-44
2022/07/08 11:02:43;;;;;;;2.77;1.13;;;22.80;99.90;;;;;;5116737;28;20170;-43
2022/07/08 11:05:41;;;;;;;4.47;1.57;;;23.30;99.90;;;;;;5117270;28;20178;-43
2022/07/08 11:08:19;;;;;;;4.10;1.53;;;23.90;99.90;;;;;;5114771;28;20186;-44
2022/07/08 11:10:48;;;;;;;4.80;1.40;;;24.50;99.90;;;;;;5115653;28;20182;-44
2022/07/08 11:13:14;;;;;;;7.10;1.73;;;24.60;99.90;;;;;;5115636;28;20637;-42
2022/07/08 11:15:41;;;;;;;5.40;1.73;;;24.40;99.90;;;;;;5115268;28;20174;-43
2022/07/08 11:18:07;;;;;;;3.60;1.35;;;24.10;99.90;;;;;;5115684;28;20261;-43
2022/07/08 11:20:35;;;;;;;5.97;1.60;;;24.00;99.90;;;;;;5115013;28;20265;-43
2022/07/08 11:23:05;;;;;;;4.78;1.33;;;24.30;99.90;;;;;;5114957;28;20578;-44
2022/07/08 11:25:31;;;;;;;5.50;1.50;;;24.60;99.90;;;;;;5115497;28;20253;-41
2022/07/08 11:27:57;;;;;;;4.10;1.40;;;24.80;99.90;;;;;;5115092;28;20182;-43
2022/07/08 11:30:22;;;;;;;5.55;1.42;;;24.70;99.90;;;;;;5114784;28;20216;-44
2022/07/08 11:32:50;;;;;;;3.13;1.25;;;24.40;99.90;;;;;;5114843;28;20177;-43
2022/07/08 11:35:17;;;;;;;8.18;1.65;;;24.50;99.90;;;;;;5115096;28;20178;-43
2022/07/08 11:37:46;;;;;;;4.78;1.50;;;24.70;99.90;;;;;;5114598;28;20371;-45
2022/07/08 11:40:18;;;;;;;3.65;1.63;;;24.70;99.90;;;;;;5114808;28;20221;-44
2022/07/08 11:42:44;;;;;;;4.20;1.10;;;24.50;99.90;;;;;;5116815;28;20163;-45
2022/07/08 11:45:11;;;;;;;4.03;1.20;;;24.40;99.90;;;;;;5113896;28;20223;-43
2022/07/08 11:47:37;;;;;;;3.03;1.30;;;24.30;99.90;;;;;;5114855;28;20185;-44
2022/07/08 11:50:04;;;;;;;3.90;1.50;;;24.10;99.90;;;;;;5114385;28;20206;-44
2022/07/08 11:52:31;;;;;;;5.95;1.33;;;23.80;99.90;;;;;;5114454;28;20175;-45
2022/07/08 11:54:59;;;;;;;5.50;1.27;;;23.80;99.90;;;;;;5114592;28;20247;-43
2022/07/08 11:57:25;;;;;;;8.13;1.55;;;23.90;99.90;;;;;;5114562;28;20178;-43
2022/07/08 11:59:51;;;;;;;3.30;1.10;;;24.00;99.90;;;;;;5114562;28;20687;-43
2022/07/08 12:02:20;;;;;;;5.90;1.75;;;24.10;99.90;;;;;;5114622;28;20178;-46
2022/07/08 12:04:47;;;;;;;4.00;1.30;;;24.20;99.90;;;;;;5114405;28;20178;-43
2022/07/08 12:07:26;;;;;;;3.00;1.27;;;24.30;99.90;;;;;;5116125;28;20265;-40
2022/07/08 12:10:03;;;;;;;4.97;1.70;;;24.50;99.90;;;;;;5114210;28;20214;-38
2022/07/08 12:12:30;;;;;;;7.55;1.40;;;24.80;99.90;;;;;;5114096;28;20644;-39
2022/07/08 12:14:57;;;;;;;5.47;1.50;;;24.90;99.90;;;;;;5114474;28;20178;-40
2022/07/08 12:17:26;;;;;;;2.30;1.13;;;25.00;99.90;;;;;;5114452;28;20257;-40
2022/07/08 12:19:53;;;;;;;4.80;1.10;;;25.20;99.90;;;;;;5079347;28;20212;-41
2022/07/08 12:22:48;;;;;;;6.75;1.42;;;25.20;99.90;;;;;;5095880;28;20179;-38
2022/07/08 12:25:18;;;;;;;5.40;1.50;;;25.20;99.90;;;;;;5114700;28;20655;-38
2022/07/08 12:27:55;;;;;;;5.47;1.10;;;25.20;99.90;;;;;;5114399;28;20168;-39
2022/07/08 12:30:27;;;;;;;3.85;1.20;;;25.40;99.90;;;;;;5113960;28;20536;-37
2022/07/08 12:32:58;;;;;;;3.20;1.30;;;25.50;99.90;;;;;;5114267;28;20159;-40
2022/07/08 12:35:34;;;;;;;4.47;1.20;;;25.80;99.90;;;;;;5114383;28;20671;-41
2022/07/08 12:38:08;;;;;;;8.30;1.38;;;26.10;99.90;;;;;;5113849;28;20170;-40
2022/07/08 12:40:42;;;;;;;5.15;1.33;;;26.20;99.90;;;;;;5096048;28;20186;-38
2022/07/08 12:43:09;;;;;;;3.65;1.10;;;26.30;99.90;;;;;;5114262;28;20188;-39
2022/07/08 12:45:35;;;;;;;3.00;1.02;;;26.30;99.90;;;;;;5113881;28;20205;-40
2022/07/08 12:48:02;;;;;;;3.53;1.05;;;26.40;99.90;;;;;;5113749;28;20205;-40
2022/07/08 12:50:29;;;;;;;3.58;1.10;;;26.60;99.90;;;;;;5113775;28;20201;-39